createdAt,value
2023-02-12T00:07:18.788Z,4.2
2023-02-12T00:12:01.113Z,4.2
2023-02-12T00:16:43.438Z,4.3
2023-02-12T00:21:25.758Z,4.2
2023-02-12T00:26:08.193Z,4.3
2023-02-12T00:30:50.515Z,4.3
2023-02-12T00:35:32.847Z,4.3
2023-02-12T00:40:15.269Z,4.2
2023-02-12T00:44:57.592Z,4.1
2023-02-12T00:54:22.257Z,4.2
2023-02-12T00:59:04.676Z,4.1
2023-02-12T01:03:47.005Z,4
2023-02-12T01:08:29.323Z,4.2
2023-02-12T01:17:54.081Z,4.2
2023-02-12T01:22:36.411Z,4
2023-02-12T01:27:18.735Z,4.1
2023-02-12T01:32:01.069Z,4.1
2023-02-12T01:41:25.891Z,4.2
2023-02-12T01:46:08.144Z,4.2
2023-02-12T01:50:50.567Z,4.1
2023-02-12T01:55:32.896Z,3.9
2023-02-12T02:00:15.222Z,4
2023-02-12T02:04:57.545Z,4.1
2023-02-12T02:09:39.959Z,4.2
2023-02-12T02:14:22.300Z,4.1
2023-02-12T02:19:03.721Z,3.9
2023-02-12T02:28:28.372Z,3.7
2023-02-12T02:33:10.795Z,3.6
2023-02-12T02:37:53.120Z,3.7
2023-02-12T02:42:35.446Z,3.7
2023-02-12T02:47:17.777Z,3.6
2023-02-12T02:52:00.198Z,3.6
2023-02-12T02:56:42.528Z,3.5
2023-02-12T03:01:24.854Z,3.6
2023-02-12T03:06:07.178Z,3.5
2023-02-12T03:15:31.928Z,3.5
2023-02-12T03:20:14.245Z,3.5
2023-02-12T03:24:55.686Z,3.4
2023-02-12T03:29:38.085Z,3.6
2023-02-12T03:34:20.437Z,3.6
2023-02-12T03:39:02.761Z,3.6
2023-02-12T03:43:45.085Z,3.5
2023-02-12T03:48:27.415Z,3.6
2023-02-12T03:53:10.405Z,3.6
2023-02-12T04:02:34.532Z,3.8
2023-02-12T04:07:16.818Z,3.5
2023-02-12T04:11:59.243Z,3.6
2023-02-12T04:16:41.571Z,3.6
2023-02-12T04:21:23.889Z,3.6
2023-02-12T04:26:06.313Z,3.6
2023-02-12T04:30:48.639Z,3.5
2023-02-12T04:35:30.963Z,3.4
2023-02-12T04:40:12.398Z,3.5
2023-02-12T04:49:37.064Z,3.5
2023-02-12T04:54:19.476Z,3.5
2023-02-12T04:59:01.799Z,3.4
2023-02-12T05:03:44.128Z,3.4
2023-02-12T05:08:26.553Z,3.5
2023-02-12T05:13:08.881Z,3.5
2023-02-12T05:17:51.207Z,3.6
2023-02-12T05:22:33.530Z,3.6
2023-02-12T05:27:15.966Z,3.5
2023-02-12T05:36:40.612Z,3.6
2023-02-12T05:41:22.948Z,3.4
2023-02-12T05:46:04.350Z,3.6
2023-02-12T05:50:46.784Z,3.6
2023-02-12T05:55:29.110Z,3.7
2023-02-12T06:00:11.448Z,3.5
2023-02-12T06:04:53.761Z,3.4
2023-02-12T06:09:36.184Z,3.5
2023-02-12T06:14:18.515Z,3.5
2023-02-12T06:23:43.264Z,3.5
2023-02-12T06:28:25.597Z,3.6
2023-02-12T06:33:07.919Z,3.6
2023-02-12T06:37:50.243Z,3.5
2023-02-12T06:42:32.686Z,3.6
2023-02-12T06:47:15.001Z,3.5
2023-02-12T06:51:57.381Z,3.6
2023-02-12T06:56:39.651Z,3.3
2023-02-12T07:01:22.072Z,3.5
2023-02-12T07:10:46.811Z,3.8
2023-02-12T07:15:29.158Z,3.7
2023-02-12T07:20:10.483Z,4
2023-02-12T07:24:52.905Z,4.1
2023-02-12T07:29:35.239Z,4.2
2023-02-12T07:34:17.723Z,4.2
2023-02-12T07:38:59.890Z,4.1
2023-02-12T07:43:42.317Z,4.2
2023-02-12T07:48:24.635Z,4.1
2023-02-12T07:57:49.390Z,4.4
2023-02-12T08:02:31.769Z,4.1
2023-02-12T08:07:14.090Z,4.4
2023-02-12T08:11:56.467Z,4.4
2023-02-12T08:16:38.798Z,4.2
2023-02-12T08:21:21.129Z,4.3
2023-02-12T08:26:03.453Z,4.2
2023-02-12T08:30:45.775Z,4.4
2023-02-12T08:35:28.197Z,4.5
2023-02-12T08:44:52.855Z,5.1
2023-02-12T08:49:35.312Z,5.2
2023-02-12T08:54:17.599Z,5.3
2023-02-12T08:58:59.921Z,5.4
2023-02-12T09:03:42.251Z,5.5
2023-02-12T09:08:24.680Z,5.8
2023-02-12T09:13:06.996Z,5.9
2023-02-12T09:17:49.322Z,6
2023-02-12T09:22:31.653Z,5.9
2023-02-12T09:31:56.419Z,5.7
2023-02-12T09:36:38.740Z,6.2
2023-02-12T09:41:21.061Z,6.5
2023-02-12T09:46:03.481Z,6.3
2023-02-12T09:50:45.816Z,6.2
2023-02-12T09:55:28.141Z,6.4
2023-02-12T10:00:10.465Z,6.4
2023-02-12T10:04:52.892Z,7
2023-02-12T10:09:35.226Z,6.7
2023-02-12T10:14:17.751Z,6.7
2023-02-12T10:19:00.172Z,6.5
2023-02-12T10:23:41.900Z,7.1
2023-02-12T10:28:24.715Z,7
2023-02-12T10:33:06.797Z,7
2023-02-12T10:37:49.403Z,7.3
2023-02-12T10:42:31.858Z,7
2023-02-12T10:47:14.253Z,7.4
2023-02-12T10:51:56.812Z,7.9
2023-02-12T11:01:21.739Z,8.6
2023-02-12T11:06:04.119Z,8.2
2023-02-12T11:10:46.797Z,8.8
2023-02-12T11:15:29.172Z,8
2023-02-12T11:20:11.789Z,8.8
2023-02-12T11:24:54.191Z,9
2023-02-12T11:29:36.723Z,9.8
2023-02-12T11:34:19.212Z,10.6
2023-02-12T11:39:01.615Z,9.5
2023-02-12T11:48:26.568Z,9.7
2023-02-12T11:53:09.000Z,10
2023-02-12T11:57:50.617Z,10.5
2023-02-12T12:02:33.168Z,10.8
2023-02-12T12:07:15.686Z,10
2023-02-12T12:11:58.099Z,9.3
2023-02-12T12:16:40.509Z,9.2
2023-02-12T12:21:23.090Z,9.5
2023-02-12T12:26:05.649Z,9.5
2023-02-12T12:35:30.585Z,9.9
2023-02-12T12:40:12.982Z,10.3
2023-02-12T12:44:55.474Z,10.3
2023-02-12T12:49:38.039Z,10.3
2023-02-12T12:54:20.525Z,9.8
2023-02-12T12:59:02.952Z,10.6
2023-02-12T13:03:44.655Z,10.9
2023-02-12T13:08:27.053Z,10.5
2023-02-12T13:13:09.534Z,10.6
2023-02-12T13:22:34.528Z,10.2
2023-02-12T13:27:16.993Z,9.7
2023-02-12T13:31:59.509Z,9.9
2023-02-12T13:36:42.020Z,9.5
2023-02-12T13:41:24.380Z,9.6
2023-02-12T13:46:06.914Z,10
2023-02-12T13:50:49.465Z,10.1
2023-02-12T13:55:31.895Z,10.1
2023-02-12T14:00:14.392Z,10.1
2023-02-12T14:09:39.463Z,9.4
2023-02-12T14:14:21.845Z,8.7
2023-02-12T14:19:03.480Z,8.4
2023-02-12T14:23:46.096Z,8.8
2023-02-12T14:28:28.507Z,8.7
2023-02-12T14:33:10.867Z,8.8
2023-02-12T14:37:53.290Z,8.8
2023-02-12T14:42:35.809Z,8.9
2023-02-12T14:47:18.453Z,8.3
2023-02-12T14:56:43.340Z,8.4
2023-02-12T15:01:25.815Z,8.4
2023-02-12T15:06:08.247Z,8.5
2023-02-12T15:10:50.878Z,8.5
2023-02-12T15:15:33.197Z,8.5
2023-02-12T15:20:15.906Z,8.8
2023-02-12T15:24:57.443Z,8.9
2023-02-12T15:29:39.951Z,8.8
2023-02-12T15:34:22.320Z,8.7
2023-02-12T15:43:47.249Z,8.5
2023-02-12T15:48:29.773Z,8.4
2023-02-12T15:53:12.333Z,8.2
2023-02-12T15:57:54.724Z,8.1
2023-02-12T16:02:37.247Z,7.9
2023-02-12T16:07:19.699Z,7.9
2023-02-12T16:12:02.263Z,7.5
2023-02-12T16:16:44.795Z,7.4
2023-02-12T16:21:27.262Z,7.2
2023-02-12T16:30:52.104Z,7.1
2023-02-12T16:35:34.649Z,7
2023-02-12T16:40:16.244Z,6.9
2023-02-12T16:44:58.786Z,6.9
2023-02-12T16:49:41.364Z,7
2023-02-12T16:54:23.738Z,7
2023-02-12T16:59:06.366Z,6.6
2023-02-12T17:03:48.724Z,6.5
2023-02-12T17:08:31.269Z,6.5
2023-02-12T17:17:56.155Z,6.4
2023-02-12T17:22:38.583Z,6.3
2023-02-12T17:27:21.139Z,6.2
2023-02-12T17:32:03.536Z,5.9
2023-02-12T17:36:46.132Z,6
2023-02-12T17:41:28.599Z,5.7
2023-02-12T17:46:10.233Z,5.7
2023-02-12T17:50:52.629Z,5.6
2023-02-12T17:55:35.164Z,5.3
2023-02-12T18:05:00.120Z,5.2
2023-02-12T18:09:42.813Z,5.2
2023-02-12T18:14:25.198Z,4.9
2023-02-12T18:19:07.693Z,5
2023-02-12T18:23:50.178Z,5
2023-02-12T18:28:32.543Z,4.9
2023-02-12T18:33:15.453Z,5.1
2023-02-12T18:37:57.505Z,5.1
2023-02-12T18:42:40.016Z,4.9
2023-02-12T18:52:05.028Z,4.7
2023-02-12T18:56:47.692Z,4.7
2023-02-12T19:01:29.114Z,4.6
2023-02-12T19:06:11.554Z,4.4
2023-02-12T19:10:54.103Z,4.1
2023-02-12T19:15:36.770Z,3.8
2023-02-12T19:20:18.113Z,3.7
2023-02-12T19:25:01.393Z,3.6
2023-02-12T19:29:43.161Z,3.3
2023-02-12T19:39:08.147Z,3.1
2023-02-12T19:43:50.713Z,2.9
2023-02-12T19:48:33.067Z,3.2
2023-02-12T19:53:15.600Z,3.3
2023-02-12T19:57:58.022Z,3.4
2023-02-12T20:02:40.547Z,3.5
2023-02-12T20:07:23.067Z,3.2
2023-02-12T20:12:05.492Z,3.3
2023-02-12T20:16:48.016Z,3.2
2023-02-12T20:26:12.972Z,3.5
2023-02-12T20:30:55.502Z,3.3
2023-02-12T20:35:37.123Z,3.4
2023-02-12T20:40:19.548Z,3.4
2023-02-12T20:45:02.086Z,3.5
2023-02-12T20:49:44.554Z,3.3
2023-02-12T20:54:27.020Z,3.5
2023-02-12T20:59:09.701Z,3.6
2023-02-12T21:03:52.205Z,3.7
2023-02-12T21:13:16.921Z,3.7
2023-02-12T21:17:59.488Z,3.4
2023-02-12T21:22:42.161Z,3
2023-02-12T21:27:24.551Z,2.9
2023-02-12T21:32:07.070Z,2.6
2023-02-12T21:36:49.445Z,2.9
2023-02-12T21:41:31.164Z,2.7
2023-02-12T21:46:13.661Z,2.3
2023-02-12T21:50:56.168Z,2.4
2023-02-12T22:00:21.185Z,2.2
2023-02-12T22:05:03.531Z,2.1
2023-02-12T22:09:45.919Z,2.2
2023-02-12T22:14:28.640Z,2
2023-02-12T22:19:10.858Z,1.8
2023-02-12T22:23:53.542Z,1.7
2023-02-12T22:28:36.038Z,1.9
2023-02-12T22:33:18.537Z,1.8
2023-02-12T22:38:01.054Z,1.6
2023-02-12T22:47:25.924Z,1.9
2023-02-12T22:52:08.334Z,1.5
2023-02-12T22:56:50.163Z,1.3
2023-02-12T23:01:32.556Z,1
2023-02-12T23:06:15.070Z,1.1
2023-02-12T23:10:57.335Z,1.1
2023-02-12T23:15:40.032Z,0.8
2023-02-12T23:20:22.596Z,0.7
2023-02-12T23:25:05.006Z,0.9
2023-02-12T23:34:30.061Z,0.7
2023-02-12T23:39:12.426Z,0.1
2023-02-12T23:43:55.059Z,0.1
2023-02-12T23:48:37.406Z,0.4
2023-02-12T23:53:19.985Z,1.1
2023-02-12T23:58:02.499Z,1
